sensor_id;sensor_type;location;lat;lon;timestamp;P1;durP1;ratioP1;P2;durP2;ratioP2
57101;SDS011;42982;54.558;18.508;2023-07-30T00:00:55;0.85;;;0.70;;
57101;SDS011;42982;54.558;18.508;2023-07-30T00:01:57;1.83;;;0.70;;
57101;SDS011;42982;54.558;18.508;2023-07-30T00:02:59;1.40;;;0.75;;
57101;SDS011;42982;54.558;18.508;2023-07-30T00:04:04;2.10;;;0.80;;
57101;SDS011;42982;54.558;18.508;2023-07-30T00:05:11;0.95;;;0.75;;
57101;SDS011;42982;54.558;18.508;2023-07-30T00:06:17;1.20;;;0.70;;
57101;SDS011;42982;54.558;18.508;2023-07-30T00:07:19;0.70;;;0.70;;
57101;SDS011;42982;54.558;18.508;2023-07-30T00:08:28;1.77;;;0.90;;
57101;SDS011;42982;54.558;18.508;2023-07-30T00:09:32;1.85;;;0.70;;
57101;SDS011;42982;54.558;18.508;2023-07-30T00:10:36;1.40;;;0.73;;
57101;SDS011;42982;54.558;18.508;2023-07-30T00:11:41;0.85;;;0.70;;
57101;SDS011;42982;54.558;18.508;2023-07-30T00:12:45;1.67;;;0.70;;
57101;SDS011;42982;54.558;18.508;2023-07-30T00:13:49;0.80;;;0.60;;
57101;SDS011;42982;54.558;18.508;2023-07-30T00:14:56;0.60;;;0.60;;
57101;SDS011;42982;54.558;18.508;2023-07-30T00:16:00;1.00;;;0.60;;
57101;SDS011;42982;54.558;18.508;2023-07-30T00:17:04;1.15;;;0.80;;
57101;SDS011;42982;54.558;18.508;2023-07-30T00:18:09;0.95;;;0.70;;
57101;SDS011;42982;54.558;18.508;2023-07-30T00:19:16;1.00;;;0.65;;
57101;SDS011;42982;54.558;18.508;2023-07-30T00:20:18;1.33;;;0.70;;
57101;SDS011;42982;54.558;18.508;2023-07-30T00:21:22;0.75;;;0.70;;
57101;SDS011;42982;54.558;18.508;2023-07-30T00:22:23;1.45;;;0.70;;
57101;SDS011;42982;54.558;18.508;2023-07-30T00:23:25;0.85;;;0.77;;
57101;SDS011;42982;54.558;18.508;2023-07-30T00:24:27;1.02;;;0.73;;
57101;SDS011;42982;54.558;18.508;2023-07-30T00:25:29;0.65;;;0.50;;
57101;SDS011;42982;54.558;18.508;2023-07-30T00:26:36;0.60;;;0.57;;
57101;SDS011;42982;54.558;18.508;2023-07-30T00:27:38;0.52;;;0.52;;
57101;SDS011;42982;54.558;18.508;2023-07-30T00:28:41;2.50;;;0.70;;
57101;SDS011;42982;54.558;18.508;2023-07-30T00:29:43;0.73;;;0.70;;
57101;SDS011;42982;54.558;18.508;2023-07-30T00:30:47;0.75;;;0.63;;
57101;SDS011;42982;54.558;18.508;2023-07-30T00:31:52;1.35;;;0.80;;
57101;SDS011;42982;54.558;18.508;2023-07-30T00:32:55;0.73;;;0.60;;
57101;SDS011;42982;54.558;18.508;2023-07-30T00:33:59;0.90;;;0.75;;
57101;SDS011;42982;54.558;18.508;2023-07-30T00:35:07;0.80;;;0.70;;
57101;SDS011;42982;54.558;18.508;2023-07-30T00:36:11;1.45;;;1.00;;
57101;SDS011;42982;54.558;18.508;2023-07-30T00:37:15;1.15;;;0.88;;
57101;SDS011;42982;54.558;18.508;2023-07-30T00:38:23;0.70;;;0.70;;
57101;SDS011;42982;54.558;18.508;2023-07-30T00:39:27;0.98;;;0.70;;
57101;SDS011;42982;54.558;18.508;2023-07-30T00:40:29;0.70;;;0.70;;
57101;SDS011;42982;54.558;18.508;2023-07-30T00:41:35;0.77;;;0.75;;
57101;SDS011;42982;54.558;18.508;2023-07-30T00:42:39;0.98;;;0.77;;
57101;SDS011;42982;54.558;18.508;2023-07-30T00:43:44;0.55;;;0.55;;
57101;SDS011;42982;54.558;18.508;2023-07-30T00:44:45;1.00;;;0.88;;
57101;SDS011;42982;54.558;18.508;2023-07-30T00:45:47;0.77;;;0.60;;
57101;SDS011;42982;54.558;18.508;2023-07-30T00:46:49;0.80;;;0.70;;
57101;SDS011;42982;54.558;18.508;2023-07-30T00:47:53;0.93;;;0.70;;
57101;SDS011;42982;54.558;18.508;2023-07-30T00:48:54;1.88;;;0.60;;
57101;SDS011;42982;54.558;18.508;2023-07-30T00:49:56;0.98;;;0.70;;
57101;SDS011;42982;54.558;18.508;2023-07-30T00:50:57;0.98;;;0.65;;
57101;SDS011;42982;54.558;18.508;2023-07-30T00:52:00;1.88;;;0.73;;
57101;SDS011;42982;54.558;18.508;2023-07-30T00:53:02;1.45;;;0.70;;
57101;SDS011;42982;54.558;18.508;2023-07-30T00:54:03;0.73;;;0.50;;
57101;SDS011;42982;54.558;18.508;2023-07-30T00:55:08;1.00;;;0.60;;
57101;SDS011;42982;54.558;18.508;2023-07-30T00:56:14;0.90;;;0.63;;
57101;SDS011;42982;54.558;18.508;2023-07-30T00:57:21;0.80;;;0.65;;
57101;SDS011;42982;54.558;18.508;2023-07-30T00:58:23;0.60;;;0.55;;
57101;SDS011;42982;54.558;18.508;2023-07-30T00:59:25;1.65;;;0.70;;
57101;SDS011;42982;54.558;18.508;2023-07-30T01:00:26;2.05;;;0.70;;
57101;SDS011;42982;54.558;18.508;2023-07-30T01:01:29;1.05;;;0.70;;
57101;SDS011;42982;54.558;18.508;2023-07-30T01:02:37;1.30;;;0.70;;
57101;SDS011;42982;54.558;18.508;2023-07-30T01:03:38;0.77;;;0.70;;
57101;SDS011;42982;54.558;18.508;2023-07-30T01:04:45;1.02;;;0.63;;
57101;SDS011;42982;54.558;18.508;2023-07-30T01:05:46;0.90;;;0.73;;
57101;SDS011;42982;54.558;18.508;2023-07-30T01:06:49;1.33;;;0.60;;
57101;SDS011;42982;54.558;18.508;2023-07-30T01:07:56;1.42;;;0.75;;
57101;SDS011;42982;54.558;18.508;2023-07-30T01:09:00;1.38;;;0.80;;
57101;SDS011;42982;54.558;18.508;2023-07-30T01:10:04;1.80;;;0.70;;
57101;SDS011;42982;54.558;18.508;2023-07-30T01:11:07;0.77;;;0.63;;
57101;SDS011;42982;54.558;18.508;2023-07-30T01:12:09;2.78;;;0.85;;
57101;SDS011;42982;54.558;18.508;2023-07-30T01:13:17;1.63;;;0.60;;
57101;SDS011;42982;54.558;18.508;2023-07-30T01:14:18;2.25;;;0.77;;
57101;SDS011;42982;54.558;18.508;2023-07-30T01:15:29;1.85;;;0.50;;
57101;SDS011;42982;54.558;18.508;2023-07-30T01:16:32;1.27;;;0.63;;
57101;SDS011;42982;54.558;18.508;2023-07-30T01:17:34;1.60;;;0.68;;
57101;SDS011;42982;54.558;18.508;2023-07-30T01:18:37;1.15;;;0.65;;
57101;SDS011;42982;54.558;18.508;2023-07-30T01:19:38;1.60;;;0.70;;
57101;SDS011;42982;54.558;18.508;2023-07-30T01:20:40;1.00;;;0.88;;
57101;SDS011;42982;54.558;18.508;2023-07-30T01:21:47;0.60;;;0.60;;
57101;SDS011;42982;54.558;18.508;2023-07-30T01:22:48;0.90;;;0.70;;
57101;SDS011;42982;54.558;18.508;2023-07-30T01:23:51;0.65;;;0.65;;
57101;SDS011;42982;54.558;18.508;2023-07-30T01:24:53;0.95;;;0.73;;
57101;SDS011;42982;54.558;18.508;2023-07-30T01:26:12;1.10;;;0.80;;
57101;SDS011;42982;54.558;18.508;2023-07-30T01:28:26;0.65;;;0.65;;
57101;SDS011;42982;54.558;18.508;2023-07-30T01:30:49;1.02;;;0.60;;
57101;SDS011;42982;54.558;18.508;2023-07-30T01:31:54;0.82;;;0.73;;
57101;SDS011;42982;54.558;18.508;2023-07-30T01:33:01;0.90;;;0.70;;
57101;SDS011;42982;54.558;18.508;2023-07-30T01:34:04;1.80;;;0.75;;
57101;SDS011;42982;54.558;18.508;2023-07-30T01:35:09;1.45;;;0.60;;
57101;SDS011;42982;54.558;18.508;2023-07-30T01:36:16;1.02;;;0.73;;
57101;SDS011;42982;54.558;18.508;2023-07-30T01:37:22;1.88;;;0.80;;
57101;SDS011;42982;54.558;18.508;2023-07-30T01:38:25;0.98;;;0.60;;
57101;SDS011;42982;54.558;18.508;2023-07-30T01:39:30;0.55;;;0.50;;
57101;SDS011;42982;54.558;18.508;2023-07-30T01:40:36;1.17;;;0.80;;
57101;SDS011;42982;54.558;18.508;2023-07-30T01:41:38;1.45;;;0.65;;
57101;SDS011;42982;54.558;18.508;2023-07-30T01:42:43;1.10;;;0.80;;
57101;SDS011;42982;54.558;18.508;2023-07-30T01:43:44;1.08;;;0.80;;
57101;SDS011;42982;54.558;18.508;2023-07-30T01:44:46;1.50;;;0.90;;
57101;SDS011;42982;54.558;18.508;2023-07-30T01:45:48;2.03;;;0.90;;
57101;SDS011;42982;54.558;18.508;2023-07-30T01:46:50;0.70;;;0.70;;
57101;SDS011;42982;54.558;18.508;2023-07-30T01:47:57;0.77;;;0.68;;
57101;SDS011;42982;54.558;18.508;2023-07-30T01:48:58;1.88;;;0.95;;
57101;SDS011;42982;54.558;18.508;2023-07-30T01:50:00;1.15;;;0.80;;
57101;SDS011;42982;54.558;18.508;2023-07-30T01:51:02;1.30;;;0.90;;
57101;SDS011;42982;54.558;18.508;2023-07-30T01:52:06;1.05;;;0.80;;
57101;SDS011;42982;54.558;18.508;2023-07-30T01:53:09;1.02;;;0.70;;
57101;SDS011;42982;54.558;18.508;2023-07-30T01:54:11;1.55;;;0.80;;
57101;SDS011;42982;54.558;18.508;2023-07-30T01:55:13;1.10;;;0.85;;
57101;SDS011;42982;54.558;18.508;2023-07-30T01:56:16;1.02;;;0.80;;
57101;SDS011;42982;54.558;18.508;2023-07-30T01:57:19;1.38;;;1.05;;
57101;SDS011;42982;54.558;18.508;2023-07-30T01:58:23;2.35;;;1.10;;
57101;SDS011;42982;54.558;18.508;2023-07-30T01:59:25;2.72;;;1.10;;
57101;SDS011;42982;54.558;18.508;2023-07-30T02:00:29;1.20;;;0.80;;
57101;SDS011;42982;54.558;18.508;2023-07-30T02:01:40;1.52;;;0.88;;
57101;SDS011;42982;54.558;18.508;2023-07-30T02:02:42;0.90;;;0.80;;
57101;SDS011;42982;54.558;18.508;2023-07-30T02:03:44;1.20;;;0.93;;
57101;SDS011;42982;54.558;18.508;2023-07-30T02:04:49;1.75;;;0.90;;
57101;SDS011;42982;54.558;18.508;2023-07-30T02:05:50;1.35;;;1.05;;
57101;SDS011;42982;54.558;18.508;2023-07-30T02:06:52;2.78;;;1.00;;
57101;SDS011;42982;54.558;18.508;2023-07-30T02:07:57;2.40;;;0.98;;
57101;SDS011;42982;54.558;18.508;2023-07-30T02:08:58;1.60;;;1.20;;
57101;SDS011;42982;54.558;18.508;2023-07-30T02:10:02;0.90;;;0.80;;
57101;SDS011;42982;54.558;18.508;2023-07-30T02:11:06;2.45;;;0.98;;
57101;SDS011;42982;54.558;18.508;2023-07-30T02:12:08;2.15;;;1.00;;
57101;SDS011;42982;54.558;18.508;2023-07-30T02:13:10;1.17;;;1.00;;
57101;SDS011;42982;54.558;18.508;2023-07-30T02:14:12;1.20;;;0.90;;
57101;SDS011;42982;54.558;18.508;2023-07-30T02:15:13;1.20;;;1.00;;
57101;SDS011;42982;54.558;18.508;2023-07-30T02:16:16;1.13;;;0.80;;
57101;SDS011;42982;54.558;18.508;2023-07-30T02:17:17;1.38;;;0.90;;
57101;SDS011;42982;54.558;18.508;2023-07-30T02:18:19;1.90;;;0.90;;
57101;SDS011;42982;54.558;18.508;2023-07-30T02:19:20;1.25;;;1.00;;
57101;SDS011;42982;54.558;18.508;2023-07-30T02:20:22;2.05;;;1.00;;
57101;SDS011;42982;54.558;18.508;2023-07-30T02:21:26;1.13;;;0.90;;
57101;SDS011;42982;54.558;18.508;2023-07-30T02:22:27;1.30;;;0.98;;
57101;SDS011;42982;54.558;18.508;2023-07-30T02:23:29;2.38;;;1.00;;
57101;SDS011;42982;54.558;18.508;2023-07-30T02:24:30;1.25;;;0.90;;
57101;SDS011;42982;54.558;18.508;2023-07-30T02:25:32;1.00;;;0.90;;
57101;SDS011;42982;54.558;18.508;2023-07-30T02:26:35;2.88;;;1.02;;
57101;SDS011;42982;54.558;18.508;2023-07-30T02:27:37;1.25;;;0.90;;
57101;SDS011;42982;54.558;18.508;2023-07-30T02:28:45;2.92;;;1.30;;
57101;SDS011;42982;54.558;18.508;2023-07-30T02:29:47;1.52;;;0.90;;
57101;SDS011;42982;54.558;18.508;2023-07-30T02:30:49;1.52;;;1.08;;
57101;SDS011;42982;54.558;18.508;2023-07-30T02:31:56;1.20;;;1.00;;
57101;SDS011;42982;54.558;18.508;2023-07-30T02:33:00;1.30;;;1.00;;
57101;SDS011;42982;54.558;18.508;2023-07-30T02:34:02;1.88;;;1.08;;
57101;SDS011;42982;54.558;18.508;2023-07-30T02:35:03;2.95;;;1.25;;
57101;SDS011;42982;54.558;18.508;2023-07-30T02:36:07;1.73;;;1.25;;
57101;SDS011;42982;54.558;18.508;2023-07-30T02:37:10;1.55;;;1.10;;
57101;SDS011;42982;54.558;18.508;2023-07-30T02:38:13;1.90;;;1.13;;
57101;SDS011;42982;54.558;18.508;2023-07-30T02:39:22;1.35;;;1.05;;
57101;SDS011;42982;54.558;18.508;2023-07-30T02:40:29;1.27;;;1.00;;
57101;SDS011;42982;54.558;18.508;2023-07-30T02:41:34;1.35;;;1.10;;
57101;SDS011;42982;54.558;18.508;2023-07-30T02:42:39;1.10;;;1.00;;
57101;SDS011;42982;54.558;18.508;2023-07-30T02:43:41;1.33;;;1.00;;
57101;SDS011;42982;54.558;18.508;2023-07-30T02:44:43;1.63;;;1.10;;
57101;SDS011;42982;54.558;18.508;2023-07-30T02:45:49;2.00;;;1.20;;
57101;SDS011;42982;54.558;18.508;2023-07-30T02:46:51;1.38;;;1.13;;
57101;SDS011;42982;54.558;18.508;2023-07-30T02:47:55;1.80;;;1.20;;
57101;SDS011;42982;54.558;18.508;2023-07-30T02:48:57;1.55;;;0.85;;
57101;SDS011;42982;54.558;18.508;2023-07-30T02:50:02;1.40;;;1.08;;
57101;SDS011;42982;54.558;18.508;2023-07-30T02:51:04;2.17;;;1.10;;
57101;SDS011;42982;54.558;18.508;2023-07-30T02:52:08;1.23;;;1.10;;
57101;SDS011;42982;54.558;18.508;2023-07-30T02:53:14;1.25;;;1.13;;
57101;SDS011;42982;54.558;18.508;2023-07-30T02:54:18;1.23;;;1.10;;
57101;SDS011;42982;54.558;18.508;2023-07-30T02:55:21;1.38;;;1.10;;
57101;SDS011;42982;54.558;18.508;2023-07-30T02:56:22;1.95;;;1.50;;
57101;SDS011;42982;54.558;18.508;2023-07-30T02:57:24;0.90;;;0.80;;
57101;SDS011;42982;54.558;18.508;2023-07-30T02:58:26;1.70;;;0.93;;
57101;SDS011;42982;54.558;18.508;2023-07-30T02:59:28;1.08;;;0.90;;
57101;SDS011;42982;54.558;18.508;2023-07-30T03:00:30;2.75;;;1.05;;
57101;SDS011;42982;54.558;18.508;2023-07-30T03:01:32;1.15;;;0.98;;
57101;SDS011;42982;54.558;18.508;2023-07-30T03:02:34;1.90;;;0.95;;
57101;SDS011;42982;54.558;18.508;2023-07-30T03:03:36;1.30;;;0.90;;
57101;SDS011;42982;54.558;18.508;2023-07-30T03:04:37;0.90;;;0.75;;
57101;SDS011;42982;54.558;18.508;2023-07-30T03:05:41;1.30;;;1.00;;
57101;SDS011;42982;54.558;18.508;2023-07-30T03:06:45;2.53;;;1.10;;
57101;SDS011;42982;54.558;18.508;2023-07-30T03:07:48;0.90;;;0.90;;
57101;SDS011;42982;54.558;18.508;2023-07-30T03:08:50;1.65;;;1.10;;
57101;SDS011;42982;54.558;18.508;2023-07-30T03:09:52;1.23;;;1.08;;
57101;SDS011;42982;54.558;18.508;2023-07-30T03:10:53;1.13;;;0.93;;
57101;SDS011;42982;54.558;18.508;2023-07-30T03:12:05;1.05;;;0.95;;
57101;SDS011;42982;54.558;18.508;2023-07-30T03:13:09;1.42;;;0.90;;
57101;SDS011;42982;54.558;18.508;2023-07-30T03:14:14;1.17;;;1.08;;
57101;SDS011;42982;54.558;18.508;2023-07-30T03:15:16;1.25;;;0.90;;
57101;SDS011;42982;54.558;18.508;2023-07-30T03:16:18;1.35;;;1.10;;
57101;SDS011;42982;54.558;18.508;2023-07-30T03:17:22;1.13;;;0.80;;
57101;SDS011;42982;54.558;18.508;2023-07-30T03:18:25;1.60;;;1.00;;
57101;SDS011;42982;54.558;18.508;2023-07-30T03:19:26;0.90;;;0.88;;
57101;SDS011;42982;54.558;18.508;2023-07-30T03:20:29;1.00;;;0.80;;
57101;SDS011;42982;54.558;18.508;2023-07-30T03:21:31;1.10;;;0.88;;
57101;SDS011;42982;54.558;18.508;2023-07-30T03:22:35;1.02;;;0.80;;
57101;SDS011;42982;54.558;18.508;2023-07-30T03:23:41;1.08;;;0.98;;
57101;SDS011;42982;54.558;18.508;2023-07-30T03:24:46;1.00;;;0.90;;
57101;SDS011;42982;54.558;18.508;2023-07-30T03:25:50;0.90;;;0.90;;
57101;SDS011;42982;54.558;18.508;2023-07-30T03:26:54;1.13;;;1.02;;
57101;SDS011;42982;54.558;18.508;2023-07-30T03:27:57;1.27;;;1.10;;
57101;SDS011;42982;54.558;18.508;2023-07-30T03:29:00;1.42;;;0.77;;
57101;SDS011;42982;54.558;18.508;2023-07-30T03:30:01;2.15;;;1.20;;
57101;SDS011;42982;54.558;18.508;2023-07-30T03:31:05;1.17;;;1.05;;
57101;SDS011;42982;54.558;18.508;2023-07-30T03:32:11;2.10;;;1.05;;
57101;SDS011;42982;54.558;18.508;2023-07-30T03:33:13;1.00;;;0.90;;
57101;SDS011;42982;54.558;18.508;2023-07-30T03:34:17;1.10;;;0.93;;
57101;SDS011;42982;54.558;18.508;2023-07-30T03:35:19;1.70;;;1.13;;
57101;SDS011;42982;54.558;18.508;2023-07-30T03:36:24;1.10;;;1.00;;
57101;SDS011;42982;54.558;18.508;2023-07-30T03:37:28;1.75;;;1.10;;
57101;SDS011;42982;54.558;18.508;2023-07-30T03:38:31;1.30;;;1.00;;
57101;SDS011;42982;54.558;18.508;2023-07-30T03:39:37;1.48;;;1.23;;
57101;SDS011;42982;54.558;18.508;2023-07-30T03:40:43;1.40;;;1.00;;
57101;SDS011;42982;54.558;18.508;2023-07-30T03:41:47;1.27;;;1.10;;
57101;SDS011;42982;54.558;18.508;2023-07-30T03:42:49;1.15;;;1.05;;
57101;SDS011;42982;54.558;18.508;2023-07-30T03:43:55;1.42;;;1.10;;
57101;SDS011;42982;54.558;18.508;2023-07-30T03:44:57;2.00;;;1.05;;
57101;SDS011;42982;54.558;18.508;2023-07-30T03:46:05;1.20;;;1.00;;
57101;SDS011;42982;54.558;18.508;2023-07-30T03:47:09;1.00;;;0.90;;
57101;SDS011;42982;54.558;18.508;2023-07-30T03:48:11;0.90;;;0.80;;
57101;SDS011;42982;54.558;18.508;2023-07-30T03:49:13;1.65;;;1.02;;
57101;SDS011;42982;54.558;18.508;2023-07-30T03:50:17;1.77;;;1.17;;
57101;SDS011;42982;54.558;18.508;2023-07-30T03:51:18;1.98;;;1.00;;
57101;SDS011;42982;54.558;18.508;2023-07-30T03:52:20;1.00;;;0.90;;
57101;SDS011;42982;54.558;18.508;2023-07-30T03:53:22;1.20;;;1.00;;
57101;SDS011;42982;54.558;18.508;2023-07-30T03:54:23;1.50;;;1.20;;
57101;SDS011;42982;54.558;18.508;2023-07-30T03:55:30;1.83;;;1.20;;
57101;SDS011;42982;54.558;18.508;2023-07-30T03:56:34;0.90;;;0.80;;
57101;SDS011;42982;54.558;18.508;2023-07-30T03:57:36;1.88;;;1.00;;
57101;SDS011;42982;54.558;18.508;2023-07-30T03:58:38;1.00;;;0.90;;
57101;SDS011;42982;54.558;18.508;2023-07-30T03:59:42;1.48;;;0.90;;
57101;SDS011;42982;54.558;18.508;2023-07-30T04:00:50;2.28;;;1.13;;
57101;SDS011;42982;54.558;18.508;2023-07-30T04:01:51;1.00;;;0.90;;
57101;SDS011;42982;54.558;18.508;2023-07-30T04:02:53;1.83;;;1.10;;
57101;SDS011;42982;54.558;18.508;2023-07-30T04:03:57;1.02;;;0.93;;
57101;SDS011;42982;54.558;18.508;2023-07-30T04:05:03;1.17;;;1.02;;
57101;SDS011;42982;54.558;18.508;2023-07-30T04:06:06;1.27;;;1.05;;
57101;SDS011;42982;54.558;18.508;2023-07-30T04:07:08;1.40;;;1.10;;
57101;SDS011;42982;54.558;18.508;2023-07-30T04:08:09;1.20;;;1.08;;
57101;SDS011;42982;54.558;18.508;2023-07-30T04:09:10;1.17;;;1.00;;
57101;SDS011;42982;54.558;18.508;2023-07-30T04:10:14;1.58;;;1.38;;
57101;SDS011;42982;54.558;18.508;2023-07-30T04:11:16;2.08;;;1.10;;
57101;SDS011;42982;54.558;18.508;2023-07-30T04:12:18;1.70;;;1.20;;
57101;SDS011;42982;54.558;18.508;2023-07-30T04:13:21;1.25;;;1.10;;
57101;SDS011;42982;54.558;18.508;2023-07-30T04:14:28;2.45;;;1.10;;
57101;SDS011;42982;54.558;18.508;2023-07-30T04:15:29;1.88;;;1.30;;
57101;SDS011;42982;54.558;18.508;2023-07-30T04:16:35;1.42;;;1.10;;
57101;SDS011;42982;54.558;18.508;2023-07-30T04:17:42;1.35;;;1.23;;
57101;SDS011;42982;54.558;18.508;2023-07-30T04:18:46;2.35;;;1.40;;
57101;SDS011;42982;54.558;18.508;2023-07-30T04:19:53;2.20;;;1.45;;
57101;SDS011;42982;54.558;18.508;2023-07-30T04:20:55;2.00;;;1.55;;
57101;SDS011;42982;54.558;18.508;2023-07-30T04:21:58;1.80;;;1.50;;
57101;SDS011;42982;54.558;18.508;2023-07-30T04:23:00;3.33;;;2.42;;
57101;SDS011;42982;54.558;18.508;2023-07-30T04:24:02;1.42;;;1.30;;
57101;SDS011;42982;54.558;18.508;2023-07-30T04:25:06;1.52;;;1.33;;
57101;SDS011;42982;54.558;18.508;2023-07-30T04:26:13;1.40;;;1.30;;
57101;SDS011;42982;54.558;18.508;2023-07-30T04:27:15;1.92;;;1.42;;
57101;SDS011;42982;54.558;18.508;2023-07-30T04:28:17;1.55;;;1.30;;
57101;SDS011;42982;54.558;18.508;2023-07-30T04:29:19;2.25;;;1.50;;
57101;SDS011;42982;54.558;18.508;2023-07-30T04:30:26;1.98;;;1.77;;
57101;SDS011;42982;54.558;18.508;2023-07-30T04:31:30;1.73;;;1.40;;
57101;SDS011;42982;54.558;18.508;2023-07-30T04:32:33;2.20;;;1.40;;
57101;SDS011;42982;54.558;18.508;2023-07-30T04:33:34;2.15;;;1.38;;
57101;SDS011;42982;54.558;18.508;2023-07-30T04:34:36;2.63;;;1.23;;
57101;SDS011;42982;54.558;18.508;2023-07-30T04:35:39;1.80;;;1.30;;
57101;SDS011;42982;54.558;18.508;2023-07-30T04:36:41;1.38;;;1.27;;
57101;SDS011;42982;54.558;18.508;2023-07-30T04:37:45;1.88;;;1.50;;
57101;SDS011;42982;54.558;18.508;2023-07-30T04:38:54;1.75;;;1.45;;
57101;SDS011;42982;54.558;18.508;2023-07-30T04:40:01;1.63;;;1.50;;
57101;SDS011;42982;54.558;18.508;2023-07-30T04:41:07;2.85;;;1.70;;
57101;SDS011;42982;54.558;18.508;2023-07-30T04:42:16;2.13;;;1.80;;
57101;SDS011;42982;54.558;18.508;2023-07-30T04:43:18;2.70;;;1.88;;
57101;SDS011;42982;54.558;18.508;2023-07-30T04:44:25;2.72;;;1.85;;
57101;SDS011;42982;54.558;18.508;2023-07-30T04:45:29;3.13;;;2.13;;
57101;SDS011;42982;54.558;18.508;2023-07-30T04:46:35;6.03;;;1.63;;
57101;SDS011;42982;54.558;18.508;2023-07-30T04:47:39;2.22;;;1.60;;
57101;SDS011;42982;54.558;18.508;2023-07-30T04:48:43;2.03;;;1.48;;
57101;SDS011;42982;54.558;18.508;2023-07-30T04:49:49;2.22;;;1.77;;
57101;SDS011;42982;54.558;18.508;2023-07-30T04:50:53;2.17;;;1.55;;
57101;SDS011;42982;54.558;18.508;2023-07-30T04:51:57;1.88;;;1.38;;
57101;SDS011;42982;54.558;18.508;2023-07-30T04:52:58;1.58;;;1.38;;
57101;SDS011;42982;54.558;18.508;2023-07-30T04:53:59;3.20;;;1.70;;
57101;SDS011;42982;54.558;18.508;2023-07-30T04:55:01;3.35;;;1.95;;
57101;SDS011;42982;54.558;18.508;2023-07-30T04:56:05;2.10;;;1.90;;
57101;SDS011;42982;54.558;18.508;2023-07-30T04:57:07;2.08;;;1.77;;
57101;SDS011;42982;54.558;18.508;2023-07-30T04:58:08;2.58;;;1.63;;
57101;SDS011;42982;54.558;18.508;2023-07-30T04:59:10;2.63;;;1.80;;
57101;SDS011;42982;54.558;18.508;2023-07-30T05:00:14;3.80;;;2.00;;
57101;SDS011;42982;54.558;18.508;2023-07-30T05:01:17;3.05;;;2.05;;
57101;SDS011;42982;54.558;18.508;2023-07-30T05:02:19;2.90;;;1.90;;
57101;SDS011;42982;54.558;18.508;2023-07-30T05:03:23;2.55;;;1.95;;
57101;SDS011;42982;54.558;18.508;2023-07-30T05:04:24;3.17;;;2.05;;
57101;SDS011;42982;54.558;18.508;2023-07-30T05:05:31;2.67;;;1.95;;
57101;SDS011;42982;54.558;18.508;2023-07-30T05:06:35;2.78;;;2.10;;
57101;SDS011;42982;54.558;18.508;2023-07-30T05:07:39;2.60;;;2.00;;
57101;SDS011;42982;54.558;18.508;2023-07-30T05:08:41;2.00;;;1.80;;
57101;SDS011;42982;54.558;18.508;2023-07-30T05:09:42;2.13;;;1.80;;
57101;SDS011;42982;54.558;18.508;2023-07-30T05:10:49;2.65;;;2.13;;
57101;SDS011;42982;54.558;18.508;2023-07-30T05:11:51;2.28;;;1.90;;
57101;SDS011;42982;54.558;18.508;2023-07-30T05:12:53;3.13;;;2.00;;
57101;SDS011;42982;54.558;18.508;2023-07-30T05:13:58;2.83;;;2.10;;
57101;SDS011;42982;54.558;18.508;2023-07-30T05:15:00;3.08;;;1.95;;
57101;SDS011;42982;54.558;18.508;2023-07-30T05:16:01;2.92;;;2.05;;
57101;SDS011;42982;54.558;18.508;2023-07-30T05:17:03;3.10;;;2.45;;
57101;SDS011;42982;54.558;18.508;2023-07-30T05:18:13;2.60;;;2.20;;
57101;SDS011;42982;54.558;18.508;2023-07-30T05:19:15;4.28;;;2.08;;
57101;SDS011;42982;54.558;18.508;2023-07-30T05:20:18;2.28;;;1.92;;
57101;SDS011;42982;54.558;18.508;2023-07-30T05:21:27;2.42;;;2.03;;
57101;SDS011;42982;54.558;18.508;2023-07-30T05:22:29;3.20;;;2.20;;
57101;SDS011;42982;54.558;18.508;2023-07-30T05:23:31;3.10;;;2.08;;
57101;SDS011;42982;54.558;18.508;2023-07-30T05:24:35;3.08;;;2.20;;
57101;SDS011;42982;54.558;18.508;2023-07-30T05:25:39;3.20;;;2.10;;
57101;SDS011;42982;54.558;18.508;2023-07-30T05:26:42;3.88;;;2.58;;
57101;SDS011;42982;54.558;18.508;2023-07-30T05:27:46;3.10;;;2.15;;
57101;SDS011;42982;54.558;18.508;2023-07-30T05:28:48;3.38;;;2.20;;
57101;SDS011;42982;54.558;18.508;2023-07-30T05:29:52;3.47;;;2.60;;
57101;SDS011;42982;54.558;18.508;2023-07-30T05:30:54;3.00;;;2.20;;
57101;SDS011;42982;54.558;18.508;2023-07-30T05:31:56;4.43;;;2.20;;
57101;SDS011;42982;54.558;18.508;2023-07-30T05:32:57;3.78;;;2.35;;
57101;SDS011;42982;54.558;18.508;2023-07-30T05:33:59;2.35;;;2.08;;
57101;SDS011;42982;54.558;18.508;2023-07-30T05:35:01;3.17;;;2.38;;
57101;SDS011;42982;54.558;18.508;2023-07-30T05:36:06;3.03;;;2.42;;
57101;SDS011;42982;54.558;18.508;2023-07-30T05:37:11;3.15;;;2.22;;
57101;SDS011;42982;54.558;18.508;2023-07-30T05:38:13;3.80;;;2.50;;
57101;SDS011;42982;54.558;18.508;2023-07-30T05:39:20;2.50;;;2.05;;
57101;SDS011;42982;54.558;18.508;2023-07-30T05:40:26;2.72;;;2.05;;
57101;SDS011;42982;54.558;18.508;2023-07-30T05:41:29;2.90;;;2.28;;
57101;SDS011;42982;54.558;18.508;2023-07-30T05:42:31;2.10;;;1.90;;
57101;SDS011;42982;54.558;18.508;2023-07-30T05:43:33;3.63;;;2.58;;
57101;SDS011;42982;54.558;18.508;2023-07-30T05:44:37;3.05;;;2.10;;
57101;SDS011;42982;54.558;18.508;2023-07-30T05:45:42;3.90;;;2.17;;
57101;SDS011;42982;54.558;18.508;2023-07-30T05:46:46;2.83;;;2.03;;
57101;SDS011;42982;54.558;18.508;2023-07-30T05:47:50;2.85;;;2.00;;
57101;SDS011;42982;54.558;18.508;2023-07-30T05:48:55;2.70;;;2.25;;
57101;SDS011;42982;54.558;18.508;2023-07-30T05:49:58;2.22;;;1.90;;
57101;SDS011;42982;54.558;18.508;2023-07-30T05:51:02;2.45;;;1.95;;
57101;SDS011;42982;54.558;18.508;2023-07-30T05:52:04;2.55;;;2.17;;
57101;SDS011;42982;54.558;18.508;2023-07-30T05:53:10;2.47;;;2.03;;
57101;SDS011;42982;54.558;18.508;2023-07-30T05:54:12;3.80;;;2.53;;
57101;SDS011;42982;54.558;18.508;2023-07-30T05:55:13;2.45;;;1.92;;
57101;SDS011;42982;54.558;18.508;2023-07-30T05:56:15;2.85;;;1.92;;
57101;SDS011;42982;54.558;18.508;2023-07-30T05:57:21;2.53;;;1.88;;
57101;SDS011;42982;54.558;18.508;2023-07-30T05:58:22;2.10;;;1.70;;
57101;SDS011;42982;54.558;18.508;2023-07-30T05:59:27;2.65;;;1.80;;
57101;SDS011;42982;54.558;18.508;2023-07-30T06:00:31;2.08;;;1.70;;
57101;SDS011;42982;54.558;18.508;2023-07-30T06:01:34;2.45;;;1.70;;
57101;SDS011;42982;54.558;18.508;2023-07-30T06:02:38;2.22;;;1.63;;
57101;SDS011;42982;54.558;18.508;2023-07-30T06:03:40;2.45;;;1.90;;
57101;SDS011;42982;54.558;18.508;2023-07-30T06:04:45;1.90;;;1.67;;
57101;SDS011;42982;54.558;18.508;2023-07-30T06:05:47;3.05;;;2.15;;
57101;SDS011;42982;54.558;18.508;2023-07-30T06:06:49;2.15;;;1.80;;
57101;SDS011;42982;54.558;18.508;2023-07-30T06:07:51;2.10;;;1.73;;
57101;SDS011;42982;54.558;18.508;2023-07-30T06:08:53;2.17;;;1.85;;
57101;SDS011;42982;54.558;18.508;2023-07-30T06:09:55;3.72;;;2.00;;
57101;SDS011;42982;54.558;18.508;2023-07-30T06:11:00;2.30;;;1.80;;
57101;SDS011;42982;54.558;18.508;2023-07-30T06:12:04;2.42;;;1.98;;
57101;SDS011;42982;54.558;18.508;2023-07-30T06:13:08;2.30;;;1.95;;
57101;SDS011;42982;54.558;18.508;2023-07-30T06:14:12;2.00;;;1.73;;
57101;SDS011;42982;54.558;18.508;2023-07-30T06:15:17;2.90;;;1.92;;
57101;SDS011;42982;54.558;18.508;2023-07-30T06:16:19;2.50;;;1.83;;
57101;SDS011;42982;54.558;18.508;2023-07-30T06:17:21;2.33;;;1.70;;
57101;SDS011;42982;54.558;18.508;2023-07-30T06:18:23;2.72;;;2.00;;
57101;SDS011;42982;54.558;18.508;2023-07-30T06:19:25;3.28;;;1.90;;